createdAt,value
2017-11-16T00:00:17.490Z,93.84
2017-11-16T00:02:44.994Z,93.95
2017-11-16T00:05:12.490Z,93.97
2017-11-16T00:07:40.232Z,93.93
2017-11-16T00:10:07.787Z,93.97
2017-11-16T00:12:35.285Z,93.90
2017-11-16T00:15:02.829Z,93.91
2017-11-16T00:17:30.330Z,93.87
2017-11-16T00:19:57.827Z,94.03
2017-11-16T00:22:25.366Z,94.00
2017-11-16T00:24:52.865Z,94.19
2017-11-16T00:27:20.360Z,94.37
2017-11-16T00:29:47.910Z,94.37
2017-11-16T00:32:15.408Z,94.22
2017-11-16T00:34:42.973Z,94.45
2017-11-16T00:37:10.608Z,94.52
2017-11-16T00:39:38.110Z,94.52
2017-11-16T00:42:05.613Z,94.55
2017-11-16T00:44:33.289Z,94.45
2017-11-16T00:47:00.784Z,94.44
2017-11-16T00:49:28.303Z,94.48
2017-11-16T00:51:55.890Z,94.50
2017-11-16T00:54:23.393Z,94.58
2017-11-16T00:56:50.908Z,94.69
2017-11-16T00:59:18.466Z,94.85
2017-11-16T01:01:46.027Z,94.96
2017-11-16T01:04:13.523Z,95.00
2017-11-16T01:06:41.069Z,94.99
2017-11-16T01:09:08.578Z,95.02
2017-11-16T01:11:36.145Z,95.14
2017-11-16T01:14:03.808Z,95.14
2017-11-16T01:16:31.355Z,95.18
2017-11-16T01:18:58.853Z,95.22
2017-11-16T01:21:26.607Z,95.13
2017-11-16T01:23:54.122Z,95.10
2017-11-16T01:26:21.705Z,94.95
2017-11-16T01:28:49.284Z,94.86
2017-11-16T01:31:16.784Z,94.72
2017-11-16T01:33:44.280Z,94.56
2017-11-16T01:36:11.840Z,94.57
2017-11-16T01:38:39.339Z,94.38
2017-11-16T01:41:06.825Z,94.24
2017-11-16T01:43:34.352Z,94.26
2017-11-16T01:46:01.853Z,94.19
2017-11-16T01:48:29.342Z,94.08
2017-11-16T01:50:56.893Z,94.01
2017-11-16T01:53:24.384Z,94.01
2017-11-16T01:55:51.884Z,93.92
2017-11-16T01:58:19.446Z,93.79
2017-11-16T02:00:46.937Z,93.81
2017-11-16T02:03:14.430Z,93.77
2017-11-16T02:05:41.962Z,93.82
2017-11-16T02:08:09.491Z,93.37
2017-11-16T02:10:36.990Z,93.32
2017-11-16T02:13:04.518Z,93.39
2017-11-16T02:15:32.080Z,93.33
2017-11-16T02:17:59.579Z,93.43
2017-11-16T02:20:27.183Z,93.44
2017-11-16T02:22:54.685Z,93.43
2017-11-16T02:25:22.176Z,93.47
2017-11-16T02:27:49.774Z,93.64
2017-11-16T02:30:17.269Z,93.72
2017-11-16T02:32:44.781Z,93.90
2017-11-16T02:35:12.354Z,94.13
2017-11-16T02:37:39.845Z,94.20
2017-11-16T02:40:07.354Z,94.12
2017-11-16T02:42:34.937Z,94.09
2017-11-16T02:45:02.460Z,94.08
2017-11-16T02:47:29.973Z,93.96
2017-11-16T02:49:57.520Z,93.87
2017-11-16T02:52:25.025Z,93.85
2017-11-16T02:54:52.525Z,93.98
2017-11-16T02:57:20.163Z,94.17
2017-11-16T02:59:48.472Z,94.22
2017-11-16T03:02:15.969Z,94.25
2017-11-16T03:04:43.679Z,94.12
2017-11-16T03:07:11.167Z,94.13
2017-11-16T03:09:38.657Z,94.02
2017-11-16T03:12:06.203Z,93.93
2017-11-16T03:14:33.767Z,93.93
2017-11-16T03:17:01.272Z,93.92
2017-11-16T03:19:28.819Z,93.97
2017-11-16T03:21:56.321Z,94.02
2017-11-16T03:24:23.822Z,94.14
2017-11-16T03:26:51.393Z,94.14
2017-11-16T03:29:18.903Z,94.21
2017-11-16T03:31:46.409Z,94.35
2017-11-16T03:34:13.973Z,94.40
2017-11-16T03:36:41.527Z,94.44
2017-11-16T03:39:09.103Z,94.36
2017-11-16T03:41:36.663Z,94.46
2017-11-16T03:44:04.270Z,94.40
2017-11-16T03:46:31.781Z,94.56
2017-11-16T03:48:59.322Z,94.66
2017-11-16T03:51:26.834Z,94.71
2017-11-16T03:53:54.334Z,94.71
2017-11-16T03:56:21.897Z,94.57
2017-11-16T03:58:49.400Z,94.54
2017-11-16T04:01:16.898Z,94.48
2017-11-16T04:03:44.443Z,94.31
2017-11-16T04:06:11.948Z,94.21
2017-11-16T04:08:39.454Z,94.22
2017-11-16T04:11:07.142Z,94.28
2017-11-16T04:13:34.647Z,94.25
2017-11-16T04:16:02.161Z,94.22
2017-11-16T04:18:29.934Z,94.20
2017-11-16T04:20:57.432Z,94.17
2017-11-16T04:23:24.928Z,94.17
2017-11-16T04:25:52.460Z,94.28
2017-11-16T04:28:19.953Z,94.35
2017-11-16T04:30:47.458Z,94.44
2017-11-16T04:33:15.081Z,94.49
2017-11-16T04:35:42.586Z,94.55
2017-11-16T04:38:10.089Z,94.64
2017-11-16T04:40:37.660Z,94.72
2017-11-16T04:43:05.173Z,94.81
2017-11-16T04:45:32.678Z,94.85
2017-11-16T04:48:00.206Z,95.06
2017-11-16T04:50:27.711Z,95.24
2017-11-16T04:52:55.253Z,95.29
2017-11-16T04:55:22.757Z,95.30
2017-11-16T04:57:50.255Z,95.23
2017-11-16T05:00:17.777Z,95.22
2017-11-16T05:02:45.285Z,95.31
2017-11-16T05:05:12.787Z,95.34
2017-11-16T05:07:40.421Z,95.38
2017-11-16T05:10:07.960Z,95.40
2017-11-16T05:12:35.524Z,95.23
2017-11-16T05:15:03.083Z,95.20
2017-11-16T05:17:30.577Z,95.24
2017-11-16T05:19:58.083Z,95.20
2017-11-16T05:22:25.635Z,95.17
2017-11-16T05:24:53.134Z,95.13
2017-11-16T05:27:20.633Z,95.08
2017-11-16T05:29:48.194Z,95.03
2017-11-16T05:32:15.695Z,95.02
2017-11-16T05:37:17.096Z,94.84
2017-11-16T05:39:44.596Z,94.81
2017-11-16T05:42:12.175Z,94.89
2017-11-16T05:44:39.719Z,94.85
2017-11-16T05:47:07.219Z,94.77
2017-11-16T05:49:34.753Z,94.67
2017-11-16T05:52:02.295Z,94.71
2017-11-16T05:54:29.803Z,94.81
2017-11-16T05:56:57.339Z,94.85
2017-11-16T05:59:24.876Z,94.84
2017-11-16T06:01:52.377Z,94.90
2017-11-16T06:04:19.905Z,95.01
2017-11-16T06:06:47.560Z,95.05
2017-11-16T06:09:15.061Z,94.94
2017-11-16T06:11:42.577Z,94.74
2017-11-16T06:14:10.112Z,94.82
2017-11-16T06:16:37.602Z,94.86
2017-11-16T06:19:05.109Z,94.90
2017-11-16T06:21:32.653Z,95.08
2017-11-16T06:24:00.142Z,94.95
2017-11-16T06:26:27.732Z,94.65
2017-11-16T06:28:55.271Z,94.31
2017-11-16T06:31:22.776Z,94.34
2017-11-16T06:33:50.268Z,94.22
2017-11-16T06:36:17.815Z,94.06
2017-11-16T06:38:45.334Z,94.05
2017-11-16T06:41:12.826Z,94.06
2017-11-16T06:43:40.360Z,94.21
2017-11-16T06:46:07.856Z,94.25
2017-11-16T06:48:35.357Z,94.32
2017-11-16T06:51:02.913Z,94.24
2017-11-16T06:53:30.409Z,94.34
2017-11-16T06:55:57.919Z,94.30
2017-11-16T06:58:25.496Z,94.27
2017-11-16T07:00:53.565Z,94.49
2017-11-16T07:03:21.123Z,94.56
2017-11-16T07:05:48.669Z,94.63
2017-11-16T07:08:16.257Z,94.61
2017-11-16T07:10:43.785Z,94.48
2017-11-16T07:13:11.381Z,94.46
2017-11-16T07:15:38.905Z,94.31
2017-11-16T07:18:06.402Z,94.31
2017-11-16T07:20:34.006Z,94.35
2017-11-16T07:23:01.572Z,94.48
2017-11-16T07:25:29.070Z,94.57
2017-11-16T07:27:56.572Z,94.91
2017-11-16T07:30:24.114Z,95.12
2017-11-16T07:32:51.615Z,94.99
2017-11-16T07:35:19.111Z,94.87
2017-11-16T07:37:46.652Z,94.93
2017-11-16T07:40:14.169Z,94.95
2017-11-16T07:42:42.293Z,95.17
2017-11-16T07:45:09.865Z,95.42
2017-11-16T07:47:37.361Z,95.47
2017-11-16T07:50:04.870Z,95.48
2017-11-16T07:52:32.408Z,95.31
2017-11-16T07:54:59.905Z,95.21
2017-11-16T07:57:27.447Z,94.99
2017-11-16T07:59:54.997Z,94.95
2017-11-16T08:02:22.500Z,95.09
2017-11-16T08:04:49.999Z,94.95
2017-11-16T08:07:17.535Z,94.43
2017-11-16T08:09:45.121Z,94.41
2017-11-16T08:12:12.623Z,94.33
2017-11-16T08:14:40.150Z,94.40
2017-11-16T08:17:07.650Z,94.31
2017-11-16T08:19:35.166Z,94.19
2017-11-16T08:22:02.729Z,94.01
2017-11-16T08:24:30.226Z,94.05
2017-11-16T08:26:57.732Z,94.09
2017-11-16T08:29:25.387Z,94.17
2017-11-16T08:31:52.948Z,94.01
2017-11-16T08:34:20.458Z,93.73
2017-11-16T08:36:47.993Z,93.50
2017-11-16T08:39:15.495Z,93.64
2017-11-16T08:41:43.004Z,93.80
2017-11-16T08:44:10.551Z,93.77
2017-11-16T08:46:38.054Z,93.95
2017-11-16T08:49:05.661Z,93.88
2017-11-16T08:51:33.245Z,93.79
2017-11-16T08:54:00.741Z,93.62
2017-11-16T08:56:28.243Z,93.81
2017-11-16T08:58:55.792Z,94.11
2017-11-16T09:01:23.301Z,93.85
2017-11-16T09:03:50.807Z,93.79
2017-11-16T09:06:18.324Z,93.58
2017-11-16T09:08:45.842Z,93.42
2017-11-16T09:11:13.489Z,93.32
2017-11-16T09:13:41.042Z,93.04
2017-11-16T09:16:08.537Z,92.44
2017-11-16T09:18:36.390Z,92.26
2017-11-16T09:21:03.937Z,92.01
2017-11-16T09:23:31.508Z,91.83
2017-11-16T09:25:59.035Z,91.74
2017-11-16T09:28:26.534Z,91.41
2017-11-16T09:30:54.032Z,91.34
2017-11-16T09:33:21.625Z,90.52
2017-11-16T09:35:49.132Z,89.83
2017-11-16T09:38:16.637Z,89.30
2017-11-16T09:40:44.197Z,89.15
2017-11-16T09:43:11.714Z,89.24
2017-11-16T09:45:39.257Z,89.75
2017-11-16T09:48:06.804Z,89.86
2017-11-16T09:50:34.345Z,88.92
2017-11-16T09:53:01.849Z,88.30
2017-11-16T09:55:29.566Z,87.66
2017-11-16T09:57:57.073Z,87.31
2017-11-16T10:00:24.578Z,86.91
2017-11-16T10:02:52.120Z,86.50
2017-11-16T10:05:19.628Z,86.55
2017-11-16T10:07:47.128Z,86.29
2017-11-16T10:10:14.673Z,85.91
2017-11-16T10:12:42.181Z,86.25
2017-11-16T10:15:09.700Z,86.36
2017-11-16T10:17:37.220Z,86.80
2017-11-16T10:20:04.753Z,87.04
2017-11-16T10:22:32.407Z,87.31
2017-11-16T10:24:59.910Z,87.77
2017-11-16T10:27:27.428Z,88.28
2017-11-16T10:29:54.987Z,87.90
2017-11-16T10:32:22.509Z,87.60
2017-11-16T10:34:50.114Z,87.33
2017-11-16T10:37:17.674Z,87.38
2017-11-16T10:39:45.171Z,87.84
2017-11-16T10:42:12.676Z,87.86
2017-11-16T10:44:40.215Z,87.46
2017-11-16T10:47:07.797Z,86.58
2017-11-16T10:49:35.332Z,86.03
2017-11-16T10:52:02.911Z,86.43
2017-11-16T10:54:30.405Z,87.06
2017-11-16T10:56:57.931Z,87.41
2017-11-16T10:59:25.493Z,87.34
2017-11-16T11:01:52.984Z,87.63
2017-11-16T11:04:20.481Z,87.65
2017-11-16T11:06:48.076Z,87.74
2017-11-16T11:09:15.579Z,87.90
2017-11-16T11:11:43.100Z,88.18
2017-11-16T11:14:10.630Z,87.49
2017-11-16T11:16:38.197Z,87.66
2017-11-16T11:19:05.688Z,87.64
2017-11-16T11:21:33.216Z,87.46
2017-11-16T11:24:00.773Z,86.97
2017-11-16T11:26:28.264Z,86.51
2017-11-16T11:28:55.809Z,86.33
2017-11-16T11:31:23.306Z,86.02
2017-11-16T11:33:50.793Z,85.53
2017-11-16T11:36:18.316Z,85.58
2017-11-16T11:38:46.739Z,85.90
2017-11-16T11:41:14.240Z,86.00
2017-11-16T11:43:41.794Z,85.41
2017-11-16T11:46:09.286Z,85.59
2017-11-16T11:48:36.877Z,85.83
2017-11-16T11:51:04.454Z,85.33
2017-11-16T11:53:31.949Z,84.85
2017-11-16T11:55:59.453Z,83.22
2017-11-16T11:58:27.119Z,83.64
2017-11-16T12:00:54.624Z,83.31
2017-11-16T12:03:22.120Z,82.89
2017-11-16T12:05:49.669Z,83.00
2017-11-16T12:08:17.169Z,82.95
2017-11-16T12:10:44.674Z,83.04
2017-11-16T12:13:12.243Z,82.50
2017-11-16T12:15:39.744Z,82.85
2017-11-16T12:18:07.251Z,83.01
2017-11-16T12:20:34.781Z,83.60
2017-11-16T12:23:02.333Z,83.22
2017-11-16T12:25:29.835Z,82.82
2017-11-16T12:27:57.335Z,82.41
2017-11-16T12:30:24.861Z,82.23
2017-11-16T12:32:52.437Z,82.07
2017-11-16T12:35:19.928Z,82.59
2017-11-16T12:37:47.460Z,82.13
2017-11-16T12:40:14.966Z,81.97
2017-11-16T12:42:42.479Z,81.29
2017-11-16T12:45:10.037Z,81.23
2017-11-16T12:47:37.553Z,80.85
2017-11-16T12:50:05.045Z,81.27
2017-11-16T12:52:32.589Z,81.48
2017-11-16T12:55:00.087Z,81.08
2017-11-16T12:57:27.593Z,81.05
2017-11-16T12:59:55.243Z,81.80
2017-11-16T13:02:22.894Z,81.30
2017-11-16T13:04:50.403Z,81.57
2017-11-16T13:07:17.963Z,81.45
2017-11-16T13:09:45.522Z,81.63
2017-11-16T13:12:13.080Z,82.02
2017-11-16T13:14:40.655Z,82.45
2017-11-16T13:17:08.202Z,82.16
2017-11-16T13:19:35.697Z,82.17
2017-11-16T13:22:03.229Z,81.46
2017-11-16T13:24:30.777Z,81.58
2017-11-16T13:26:58.333Z,81.78
2017-11-16T13:29:25.868Z,81.50
2017-11-16T13:31:53.364Z,81.46
2017-11-16T13:34:20.862Z,81.83
2017-11-16T13:36:48.415Z,81.70
2017-11-16T13:39:15.942Z,81.24
2017-11-16T13:41:43.440Z,81.32
2017-11-16T13:44:10.957Z,81.13
2017-11-16T13:46:38.619Z,81.44
2017-11-16T13:49:06.146Z,81.11
2017-11-16T13:51:33.654Z,81.56
2017-11-16T13:54:01.172Z,81.62
2017-11-16T13:56:28.785Z,81.47
2017-11-16T13:58:56.299Z,82.01
2017-11-16T14:01:23.799Z,82.04
2017-11-16T14:03:51.352Z,82.08
2017-11-16T14:06:18.856Z,82.16
2017-11-16T14:08:46.352Z,82.73
2017-11-16T14:11:13.877Z,83.20
2017-11-16T14:13:41.689Z,83.18
2017-11-16T14:16:09.229Z,83.40
2017-11-16T14:18:36.750Z,82.92
2017-11-16T14:21:04.325Z,82.34
2017-11-16T14:23:31.827Z,82.49
2017-11-16T14:25:59.352Z,82.33
2017-11-16T14:28:26.872Z,82.70
2017-11-16T14:30:54.461Z,81.63
2017-11-16T14:33:22.039Z,81.98
2017-11-16T14:35:49.586Z,81.55
2017-11-16T14:38:17.105Z,81.80
2017-11-16T14:40:44.718Z,81.86
2017-11-16T14:43:12.229Z,82.08
2017-11-16T14:45:39.736Z,82.29
2017-11-16T14:48:07.296Z,82.43
2017-11-16T14:50:34.844Z,82.36
2017-11-16T14:53:02.347Z,82.84
2017-11-16T14:55:29.873Z,83.11
2017-11-16T14:57:57.384Z,83.25
2017-11-16T15:00:24.993Z,83.52
2017-11-16T15:02:52.534Z,83.81
2017-11-16T15:05:20.029Z,84.13
2017-11-16T15:07:47.521Z,84.22
2017-11-16T15:10:15.072Z,83.98
2017-11-16T15:12:42.565Z,83.20
2017-11-16T15:15:10.087Z,83.05
2017-11-16T15:17:37.611Z,83.13
2017-11-16T15:20:05.140Z,82.97
2017-11-16T15:22:32.702Z,82.16
2017-11-16T15:25:00.258Z,82.15
2017-11-16T15:27:27.753Z,82.11
2017-11-16T15:29:55.257Z,82.12
2017-11-16T15:32:22.803Z,82.38
2017-11-16T15:34:50.398Z,82.21
2017-11-16T15:37:17.904Z,82.56
2017-11-16T15:39:45.516Z,82.68
2017-11-16T15:42:13.009Z,82.97
2017-11-16T15:44:40.506Z,83.19
2017-11-16T15:47:08.066Z,83.28
2017-11-16T15:49:35.564Z,83.22
2017-11-16T15:52:03.053Z,83.18
2017-11-16T15:54:30.610Z,83.27
2017-11-16T15:56:58.138Z,83.44
2017-11-16T15:59:25.698Z,83.23
2017-11-16T16:01:53.342Z,83.34
2017-11-16T16:04:20.842Z,83.58
2017-11-16T16:06:48.360Z,83.65
2017-11-16T16:09:15.911Z,83.80
2017-11-16T16:11:43.423Z,83.73
2017-11-16T16:14:10.934Z,83.21
2017-11-16T16:16:38.511Z,83.17
2017-11-16T16:19:06.028Z,82.80
2017-11-16T16:21:33.615Z,82.89
2017-11-16T16:24:01.168Z,82.95
2017-11-16T16:26:28.667Z,82.94
2017-11-16T16:28:56.166Z,82.70
2017-11-16T16:31:23.689Z,83.10
2017-11-16T16:33:51.187Z,83.62
2017-11-16T16:36:18.779Z,83.87
2017-11-16T16:38:46.418Z,83.64
2017-11-16T16:41:13.926Z,83.27
2017-11-16T16:43:41.439Z,83.48
2017-11-16T16:46:08.977Z,82.76
2017-11-16T16:48:36.592Z,82.61
2017-11-16T16:51:04.077Z,82.32
2017-11-16T16:53:31.601Z,81.97
2017-11-16T16:55:59.130Z,82.30
2017-11-16T16:58:26.633Z,82.19
2017-11-16T17:00:54.125Z,82.00
2017-11-16T17:03:21.665Z,82.14
2017-11-16T17:05:49.157Z,82.23
2017-11-16T17:08:16.648Z,82.20
2017-11-16T17:10:44.177Z,82.32
2017-11-16T17:13:11.683Z,82.32
2017-11-16T17:15:39.169Z,82.49
2017-11-16T17:18:06.698Z,82.32
2017-11-16T17:20:34.189Z,82.34
2017-11-16T17:23:01.696Z,82.16
2017-11-16T17:25:29.225Z,82.55
2017-11-16T17:27:56.831Z,82.66
2017-11-16T17:30:24.331Z,82.85
2017-11-16T17:32:51.882Z,83.00
2017-11-16T17:35:19.387Z,83.02
2017-11-16T17:37:46.941Z,82.94
2017-11-16T17:40:14.434Z,83.08
2017-11-16T17:42:41.927Z,83.48
2017-11-16T17:45:09.486Z,83.56
2017-11-16T17:47:36.975Z,83.67
2017-11-16T17:50:04.881Z,83.78
2017-11-16T17:52:32.425Z,84.12
2017-11-16T17:54:59.949Z,84.64
2017-11-16T17:57:27.437Z,84.81
2017-11-16T17:59:54.969Z,85.26
2017-11-16T18:02:22.525Z,85.32
2017-11-16T18:04:50.025Z,85.63
2017-11-16T18:07:17.637Z,85.49
2017-11-16T18:09:45.135Z,85.78
2017-11-16T18:12:12.659Z,86.07
2017-11-16T18:14:40.182Z,86.22
2017-11-16T18:17:07.699Z,86.09
2017-11-16T18:19:35.220Z,86.06
2017-11-16T18:22:02.726Z,85.91
2017-11-16T18:24:30.235Z,85.83
2017-11-16T18:26:57.790Z,85.76
2017-11-16T18:29:25.277Z,85.78
2017-11-16T18:31:52.787Z,85.67
2017-11-16T18:34:20.306Z,85.29
2017-11-16T18:36:47.860Z,85.10
2017-11-16T18:39:15.357Z,84.99
2017-11-16T18:41:42.859Z,85.09
2017-11-16T18:44:10.405Z,85.44
2017-11-16T18:46:37.913Z,85.50
2017-11-16T18:49:05.458Z,85.34
2017-11-16T18:51:33.055Z,85.12
2017-11-16T18:54:00.704Z,85.33
2017-11-16T18:56:28.248Z,85.71
2017-11-16T18:58:55.915Z,85.40
2017-11-16T19:01:23.548Z,85.26
2017-11-16T19:03:51.217Z,85.43
2017-11-16T19:06:18.836Z,85.47
2017-11-16T19:08:46.390Z,85.80
2017-11-16T19:11:14.094Z,86.09
2017-11-16T19:13:41.935Z,86.38
2017-11-16T19:16:09.839Z,86.51
2017-11-16T19:18:37.423Z,86.98
2017-11-16T19:21:05.031Z,87.11
2017-11-16T19:23:32.640Z,87.07
2017-11-16T19:26:00.488Z,87.34
2017-11-16T19:28:28.347Z,87.63
2017-11-16T19:30:56.105Z,87.57
2017-11-16T19:33:23.977Z,87.94
2017-11-16T19:35:51.946Z,87.90
2017-11-16T19:38:19.815Z,87.93
2017-11-16T19:40:47.680Z,88.03
2017-11-16T19:43:15.547Z,88.17
2017-11-16T19:45:43.410Z,88.80
2017-11-16T19:48:11.280Z,88.62
2017-11-16T19:50:39.144Z,88.95
2017-11-16T19:53:07.013Z,88.77
2017-11-16T19:55:34.877Z,88.87
2017-11-16T19:58:02.744Z,88.92
2017-11-16T20:00:30.687Z,88.69
2017-11-16T20:02:58.559Z,88.84
2017-11-16T20:05:26.445Z,89.01
2017-11-16T20:07:54.414Z,89.15
2017-11-16T20:10:22.571Z,89.02
2017-11-16T20:12:50.455Z,89.04
2017-11-16T20:15:18.338Z,89.14
2017-11-16T20:17:46.289Z,89.17
2017-11-16T20:20:14.259Z,88.88
2017-11-16T20:22:42.136Z,88.54
2017-11-16T20:25:09.997Z,88.35
2017-11-16T20:27:37.858Z,88.77
2017-11-16T20:30:05.828Z,88.91
2017-11-16T20:32:33.693Z,88.83
2017-11-16T20:35:01.561Z,89.01
2017-11-16T20:40:42.873Z,88.86
2017-11-16T20:46:26.083Z,88.51
2017-11-16T20:49:14.485Z,88.43
2017-11-16T20:54:51.158Z,88.36
2017-11-16T20:57:18.697Z,88.38
2017-11-16T20:59:46.235Z,88.42
2017-11-16T21:02:13.857Z,88.29
2017-11-16T21:04:41.374Z,88.50
2017-11-16T21:07:08.945Z,88.77
2017-11-16T21:09:36.610Z,88.69
2017-11-16T21:12:04.122Z,88.74
2017-11-16T21:14:31.626Z,88.07
2017-11-16T21:16:59.157Z,87.97
2017-11-16T21:19:26.666Z,87.48
2017-11-16T21:21:54.155Z,87.68
2017-11-16T21:24:21.693Z,87.21
2017-11-16T21:26:49.189Z,87.40
2017-11-16T21:29:16.686Z,87.54
2017-11-16T21:31:44.221Z,87.44
2017-11-16T21:34:11.749Z,87.08
2017-11-16T21:36:39.335Z,87.23
2017-11-16T21:39:06.887Z,87.10
2017-11-16T21:41:34.375Z,86.98
2017-11-16T21:44:01.869Z,87.25
2017-11-16T21:46:29.422Z,87.05
2017-11-16T21:48:56.928Z,87.48
2017-11-16T21:51:24.428Z,87.22
2017-11-16T21:53:51.978Z,86.94
2017-11-16T21:56:19.483Z,87.23
2017-11-16T21:58:47.042Z,87.11
2017-11-16T22:01:14.724Z,87.13
2017-11-16T22:03:42.219Z,87.41
2017-11-16T22:06:09.731Z,87.50
2017-11-16T22:08:37.619Z,87.09
2017-11-16T22:11:05.120Z,87.43
2017-11-16T22:13:32.735Z,87.53
2017-11-16T22:16:00.286Z,88.10
2017-11-16T22:18:27.840Z,87.79
2017-11-16T22:20:55.333Z,87.50
2017-11-16T22:23:22.954Z,87.50
2017-11-16T22:25:50.452Z,87.53
2017-11-16T22:28:17.940Z,87.67
2017-11-16T22:30:45.489Z,87.72
2017-11-16T22:33:12.986Z,87.61
2017-11-16T22:35:40.486Z,88.76
2017-11-16T22:38:08.013Z,87.88
2017-11-16T22:40:35.510Z,86.67
2017-11-16T22:43:03.012Z,87.04
2017-11-16T22:45:30.591Z,87.23
2017-11-16T22:47:58.083Z,87.48
2017-11-16T22:50:25.603Z,87.81
2017-11-16T22:52:53.144Z,88.08
2017-11-16T22:55:20.637Z,87.88
2017-11-16T22:57:48.196Z,88.13
2017-11-16T23:00:15.740Z,88.12
2017-11-16T23:02:43.244Z,88.56
2017-11-16T23:05:10.743Z,88.61
2017-11-16T23:07:38.307Z,88.70
2017-11-16T23:10:05.874Z,88.83
2017-11-16T23:12:33.385Z,88.42
2017-11-16T23:15:00.929Z,88.61
2017-11-16T23:17:28.428Z,88.58
2017-11-16T23:19:55.917Z,89.02
2017-11-16T23:22:23.469Z,89.31
2017-11-16T23:24:50.969Z,90.04
2017-11-16T23:27:18.723Z,90.21
2017-11-16T23:29:46.276Z,90.10
2017-11-16T23:32:13.769Z,90.09
2017-11-16T23:34:41.271Z,90.12
2017-11-16T23:37:08.921Z,90.31
2017-11-16T23:39:36.481Z,90.35
2017-11-16T23:42:04.034Z,90.48
2017-11-16T23:44:31.537Z,90.88
2017-11-16T23:46:59.081Z,90.51
2017-11-16T23:49:26.584Z,90.48
2017-11-16T23:51:54.081Z,90.51
2017-11-16T23:54:21.600Z,90.53
2017-11-16T23:56:49.103Z,91.07
2017-11-16T23:59:16.601Z,90.80
